createdAt,value
2023-05-14T00:01:15.136Z,96800.09
2023-05-14T00:03:41.730Z,96780.41
2023-05-14T00:06:09.442Z,96795.72
2023-05-14T00:08:35.972Z,96793.19
2023-05-14T00:11:02.611Z,96789.72
2023-05-14T00:13:29.201Z,96788.06
2023-05-14T00:15:55.713Z,96787.19
2023-05-14T00:18:22.080Z,96778.66
2023-05-14T00:20:48.705Z,96785.50
2023-05-14T00:23:15.068Z,96772.69
2023-05-14T00:25:41.496Z,96777.91
2023-05-14T00:28:07.842Z,96772.75
2023-05-14T00:30:34.883Z,96763.41
2023-05-14T00:33:01.436Z,96773.69
2023-05-14T00:35:28.042Z,96768.56
2023-05-14T00:37:55.028Z,96777.13
2023-05-14T00:40:25.794Z,96778.88
2023-05-14T00:42:52.598Z,96774.63
2023-05-14T00:45:19.153Z,96777.22
2023-05-14T00:47:45.808Z,96772.09
2023-05-14T00:50:13.106Z,96774.69
2023-05-14T00:52:40.860Z,96771.31
2023-05-14T00:55:08.601Z,96763.63
2023-05-14T00:57:36.349Z,96759.41
2023-05-14T01:00:03.705Z,96763.69
2023-05-14T01:02:30.196Z,96763.66
2023-05-14T01:04:57.285Z,96768.81
2023-05-14T01:08:01.972Z,96768.81
2023-05-14T01:10:33.887Z,96750.91
2023-05-14T01:13:09.249Z,96756.91
2023-05-14T01:15:37.693Z,96759.47
2023-05-14T01:18:09.430Z,96751.81
2023-05-14T01:20:36.550Z,96756.91
2023-05-14T01:23:03.659Z,96756.03
2023-05-14T01:25:31.297Z,96750.88
2023-05-14T01:28:11.302Z,96757.75
2023-05-14T01:30:43.379Z,96748.31
2023-05-14T01:33:14.493Z,96750.88
2023-05-14T01:35:41.114Z,96749.19
2023-05-14T01:38:10.942Z,96747.44
2023-05-14T01:40:38.395Z,96747.44
2023-05-14T01:43:05.631Z,96749.97
2023-05-14T01:45:35.407Z,96746.50
2023-05-14T01:48:01.981Z,96748.19
2023-05-14T01:50:28.382Z,96745.63
2023-05-14T01:52:56.417Z,96741.31
2023-05-14T01:55:24.449Z,96730.19
2023-05-14T01:57:51.835Z,96740.38
2023-05-14T02:00:18.957Z,96741.22
2023-05-14T02:02:45.442Z,96741.16
2023-05-14T02:05:13.061Z,96740.22
2023-05-14T02:07:39.997Z,96738.53
2023-05-14T02:10:07.271Z,96742.75
2023-05-14T02:12:33.947Z,96741.00
2023-05-14T02:15:00.410Z,96743.53
2023-05-14T02:17:26.926Z,96741.84
2023-05-14T02:19:53.378Z,96735.91
2023-05-14T02:22:19.733Z,96729.88
2023-05-14T02:24:46.124Z,96735.84
2023-05-14T02:27:13.370Z,96735.78
2023-05-14T02:29:39.909Z,96731.53
2023-05-14T02:32:06.673Z,96721.25
2023-05-14T02:34:34.386Z,96728.91
2023-05-14T02:37:01.074Z,96723.78
2023-05-14T02:39:27.535Z,96718.66
2023-05-14T02:41:53.956Z,96713.50
2023-05-14T02:44:20.376Z,96716.88
2023-05-14T02:46:48.387Z,96717.66
2023-05-14T02:49:14.794Z,96715.94
2023-05-14T02:51:41.216Z,96715.88
2023-05-14T02:54:07.701Z,96710.81
2023-05-14T02:56:34.124Z,96707.38
2023-05-14T02:59:00.737Z,96706.63
2023-05-14T03:01:27.859Z,96710.00
2023-05-14T03:03:54.458Z,96704.00
2023-05-14T03:06:20.901Z,96705.66
2023-05-14T03:08:47.352Z,96708.16
2023-05-14T03:11:13.792Z,96705.69
2023-05-14T03:13:40.324Z,96703.13
2023-05-14T03:16:07.077Z,96691.09
2023-05-14T03:18:34.729Z,96702.13
2023-05-14T03:21:01.364Z,96696.97
2023-05-14T03:23:27.928Z,96697.78
2023-05-14T03:25:54.334Z,96698.56
2023-05-14T03:28:20.816Z,96696.72
2023-05-14T03:30:47.296Z,96693.31
2023-05-14T03:33:13.934Z,96673.56
2023-05-14T03:35:40.318Z,96688.94
2023-05-14T03:38:07.431Z,96686.38
2023-05-14T03:40:33.928Z,96689.84
2023-05-14T03:43:00.357Z,96688.06
2023-05-14T03:45:28.578Z,96694.88
2023-05-14T03:47:55.051Z,96693.09
2023-05-14T03:50:21.851Z,96682.03
2023-05-14T03:52:48.369Z,96697.38
2023-05-14T03:55:14.847Z,96701.69
2023-05-14T03:57:41.435Z,96692.31
2023-05-14T04:00:08.622Z,96690.66
2023-05-14T04:02:35.100Z,96693.25
2023-05-14T04:05:01.580Z,96694.88
2023-05-14T04:07:28.114Z,96690.63
2023-05-14T04:09:54.462Z,96688.06
2023-05-14T04:12:20.879Z,96688.06
2023-05-14T04:14:47.320Z,96688.09
2023-05-14T04:17:13.785Z,96678.75
2023-05-14T04:19:40.448Z,96683.03
2023-05-14T04:22:06.889Z,96679.69
2023-05-14T04:24:33.310Z,96679.78
2023-05-14T04:26:59.848Z,96684.97
2023-05-14T04:29:26.386Z,96682.50
2023-05-14T04:31:53.687Z,96685.13
2023-05-14T04:34:20.272Z,96684.34
2023-05-14T04:36:46.880Z,96680.16
2023-05-14T04:39:13.396Z,96675.84
2023-05-14T04:41:39.853Z,96681.00
2023-05-14T04:44:07.050Z,96684.44
2023-05-14T04:46:33.471Z,96688.78
2023-05-14T04:48:59.924Z,96687.13
2023-05-14T04:51:26.382Z,96682.09
2023-05-14T04:53:52.748Z,96682.19
2023-05-14T04:56:19.173Z,96680.53
2023-05-14T04:58:45.685Z,96672.06
2023-05-14T05:01:12.230Z,96673.00
2023-05-14T05:03:38.708Z,96679.84
2023-05-14T05:06:05.426Z,96678.22
2023-05-14T05:08:31.853Z,96681.69
2023-05-14T05:10:58.238Z,96686.88
2023-05-14T05:13:24.739Z,96683.53
2023-05-14T05:15:51.234Z,96687.84
2023-05-14T05:18:17.786Z,96680.22
2023-05-14T05:20:44.160Z,96687.06
2023-05-14T05:23:10.967Z,96679.50
2023-05-14T05:25:37.376Z,96678.66
2023-05-14T05:28:03.836Z,96682.94
2023-05-14T05:30:30.305Z,96688.13
2023-05-14T05:32:57.429Z,96682.19
2023-05-14T05:35:23.869Z,96679.66
2023-05-14T05:37:50.277Z,96675.47
2023-05-14T05:40:16.914Z,96674.63
2023-05-14T05:42:43.600Z,96671.25
2023-05-14T05:45:10.643Z,96667.00
2023-05-14T05:47:37.118Z,96673.84
2023-05-14T05:50:03.870Z,96673.00
2023-05-14T05:52:30.407Z,96667.94
2023-05-14T05:54:56.807Z,96663.66
2023-05-14T05:57:25.660Z,96670.50
2023-05-14T05:59:53.361Z,96675.66
2023-05-14T06:02:20.315Z,96667.09
2023-05-14T06:04:46.794Z,96668.75
2023-05-14T06:07:13.223Z,96663.63
2023-05-14T06:09:39.604Z,96679.00
2023-05-14T06:12:06.611Z,96670.41
2023-05-14T06:14:33.029Z,96667.81
2023-05-14T06:16:59.551Z,96669.47
2023-05-14T06:19:26.169Z,96672.00
2023-05-14T06:21:52.864Z,96663.38
2023-05-14T06:24:20.285Z,96668.50
2023-05-14T06:26:46.717Z,96669.31
2023-05-14T06:29:13.086Z,96667.53
2023-05-14T06:31:39.590Z,96658.06
2023-05-14T06:34:06.096Z,96664.81
2023-05-14T06:36:32.518Z,96658.69
2023-05-14T06:38:59.003Z,96664.59
2023-05-14T06:41:26.046Z,96660.28
2023-05-14T06:43:52.482Z,96667.91
2023-05-14T06:46:18.875Z,96664.47
2023-05-14T06:48:45.791Z,96661.84
2023-05-14T06:51:13.315Z,96667.84
2023-05-14T06:53:40.882Z,96661.03
2023-05-14T06:56:07.804Z,96661.84
2023-05-14T06:58:34.501Z,96665.28
2023-05-14T07:01:01.236Z,96665.28
2023-05-14T07:03:29.171Z,96650.81
2023-05-14T07:05:55.731Z,96663.63
2023-05-14T07:08:22.261Z,96666.03
2023-05-14T07:10:48.621Z,96668.53
2023-05-14T07:13:15.000Z,96658.13
2023-05-14T07:15:41.450Z,96656.38
2023-05-14T07:18:07.898Z,96659.84
2023-05-14T07:20:34.493Z,96664.16
2023-05-14T07:23:00.975Z,96652.13
2023-05-14T07:25:27.462Z,96655.56
2023-05-14T07:27:53.904Z,96658.25
2023-05-14T07:30:20.778Z,96657.44
2023-05-14T07:32:47.236Z,96648.00
2023-05-14T07:35:13.990Z,96649.69
2023-05-14T07:37:40.576Z,96651.34
2023-05-14T07:40:07.534Z,96643.59
2023-05-14T07:42:36.918Z,96647.84
2023-05-14T07:45:04.570Z,96637.50
2023-05-14T07:47:31.114Z,96647.78
2023-05-14T07:49:57.809Z,96640.09
2023-05-14T07:52:25.515Z,96645.22
2023-05-14T07:54:52.193Z,96641.84
2023-05-14T07:57:19.810Z,96639.31
2023-05-14T07:59:47.744Z,96635.88
2023-05-14T08:02:15.871Z,96636.75
2023-05-14T08:04:42.547Z,96636.75
2023-05-14T08:07:09.308Z,96633.19
2023-05-14T08:09:35.969Z,96634.81
2023-05-14T08:12:02.808Z,96623.41
2023-05-14T08:14:29.289Z,96617.94
2023-05-14T08:16:55.756Z,96610.03
2023-05-14T08:19:23.143Z,96611.38
2023-05-14T08:21:49.582Z,96614.47
2023-05-14T08:24:16.235Z,96596.22
2023-05-14T08:26:42.931Z,96601.88
2023-05-14T08:29:10.822Z,96603.13
2023-05-14T08:31:38.092Z,96596.13
2023-05-14T08:34:04.644Z,96587.19
2023-05-14T08:36:31.521Z,96587.75
2023-05-14T08:38:58.254Z,96593.69
2023-05-14T08:41:25.396Z,96592.00
2023-05-14T08:44:09.240Z,96587.47
2023-05-14T08:46:38.229Z,96589.19
2023-05-14T08:49:23.285Z,96590.94
2023-05-14T08:51:49.948Z,96576.53
2023-05-14T08:54:17.738Z,96580.41
2023-05-14T08:56:46.369Z,96571.16
2023-05-14T08:59:13.456Z,96579.78
2023-05-14T09:01:47.833Z,96578.44
2023-05-14T09:04:19.385Z,96580.47
2023-05-14T09:06:48.706Z,96571.66
2023-05-14T09:09:15.432Z,96567.31
2023-05-14T09:11:42.758Z,96571.75
2023-05-14T09:14:09.921Z,96570.03
2023-05-14T09:16:37.120Z,96561.53
2023-05-14T09:19:04.791Z,96565.94
2023-05-14T09:21:33.449Z,96570.22
2023-05-14T09:24:00.277Z,96575.50
2023-05-14T09:26:27.634Z,96576.66
2023-05-14T09:29:03.655Z,96572.34
2023-05-14T09:31:31.867Z,96573.16
2023-05-14T09:33:59.204Z,96563.09
2023-05-14T09:36:29.006Z,96565.69
2023-05-14T09:38:58.593Z,96555.88
2023-05-14T09:41:25.090Z,96562.88
2023-05-14T09:43:51.740Z,96565.53
2023-05-14T09:46:18.465Z,96562.13
2023-05-14T09:48:46.130Z,96558.41
2023-05-14T09:51:13.716Z,96559.94
2023-05-14T09:53:41.258Z,96543.38
2023-05-14T09:56:07.657Z,96548.56
2023-05-14T09:58:34.068Z,96540.13
2023-05-14T10:01:01.841Z,96545.41
2023-05-14T10:03:30.751Z,96542.56
2023-05-14T10:06:01.740Z,96538.66
2023-05-14T10:08:35.276Z,96536.97
2023-05-14T10:11:05.289Z,96541.00
2023-05-14T10:13:37.311Z,96533.19
2023-05-14T10:16:16.352Z,96526.31
2023-05-14T10:18:51.793Z,96535.09
2023-05-14T10:21:21.725Z,96528.19
2023-05-14T10:23:50.312Z,96528.81
2023-05-14T10:26:17.053Z,96524.31
2023-05-14T10:28:44.003Z,96524.78
2023-05-14T10:31:10.569Z,96516.44
2023-05-14T10:33:47.232Z,96511.38
2023-05-14T10:36:13.813Z,96507.56
2023-05-14T10:38:40.193Z,96509.63
2023-05-14T10:41:21.538Z,96506.44
2023-05-14T10:43:48.166Z,96504.72
2023-05-14T10:46:14.837Z,96505.09
2023-05-14T10:48:43.173Z,96506.25
2023-05-14T10:51:10.889Z,96512.69
2023-05-14T10:53:38.377Z,96507.81
2023-05-14T10:56:09.616Z,96503.75
2023-05-14T10:58:38.055Z,96506.41
2023-05-14T11:01:06.646Z,96497.59
2023-05-14T11:03:40.133Z,96504.38
2023-05-14T11:06:07.481Z,96492.31
2023-05-14T11:08:34.135Z,96496.63
2023-05-14T11:11:00.712Z,96496.47
2023-05-14T11:13:27.299Z,96492.78
2023-05-14T11:15:53.901Z,96494.69
2023-05-14T11:18:31.005Z,96489.47
2023-05-14T11:21:01.168Z,96491.13
2023-05-14T11:23:27.994Z,96491.16
2023-05-14T11:25:55.770Z,96482.38
2023-05-14T11:28:23.323Z,96476.03
2023-05-14T11:30:51.278Z,96476.03
2023-05-14T11:33:18.574Z,96470.75
2023-05-14T11:35:46.535Z,96472.34
2023-05-14T11:38:20.394Z,96467.28
2023-05-14T11:40:54.399Z,96462.66
2023-05-14T11:43:23.635Z,96453.38
2023-05-14T11:45:54.230Z,96457.94
2023-05-14T11:48:21.785Z,96455.41
2023-05-14T11:50:49.660Z,96450.41
2023-05-14T11:53:20.759Z,96446.00
2023-05-14T11:55:47.493Z,96442.63
2023-05-14T11:58:14.189Z,96448.88
2023-05-14T12:00:40.741Z,96445.66
2023-05-14T12:03:10.090Z,96442.44
2023-05-14T12:05:39.181Z,96440.66
2023-05-14T12:08:22.252Z,96436.41
2023-05-14T12:10:48.859Z,96436.28
2023-05-14T12:13:17.277Z,96428.69
2023-05-14T12:15:48.639Z,96421.28
2023-05-14T12:18:23.858Z,96419.97
2023-05-14T12:20:52.112Z,96417.53
2023-05-14T12:23:31.619Z,96424.16
2023-05-14T12:26:09.165Z,96413.34
2023-05-14T12:28:39.305Z,96409.22
2023-05-14T12:31:06.405Z,96407.00
2023-05-14T12:33:32.939Z,96414.13
2023-05-14T12:36:19.859Z,96413.56
2023-05-14T12:38:47.552Z,96412.53
2023-05-14T12:41:14.082Z,96406.75
2023-05-14T12:43:43.692Z,96404.50
2023-05-14T12:46:10.652Z,96400.19
2023-05-14T12:48:37.024Z,96407.34
2023-05-14T12:51:03.802Z,96393.84
2023-05-14T12:53:30.255Z,96399.25
2023-05-14T12:55:56.651Z,96397.41
2023-05-14T12:58:23.079Z,96390.66
2023-05-14T13:00:49.628Z,96388.94
2023-05-14T13:03:16.345Z,96383.94
2023-05-14T13:05:42.742Z,96390.94
2023-05-14T13:08:09.949Z,96388.53
2023-05-14T13:10:36.341Z,96385.88
2023-05-14T13:13:02.811Z,96376.13
2023-05-14T13:15:31.473Z,96376.09
2023-05-14T13:17:58.138Z,96372.66
2023-05-14T13:20:27.205Z,96375.13
2023-05-14T13:22:53.703Z,96373.41
2023-05-14T13:25:20.162Z,96380.13
2023-05-14T13:27:46.564Z,96371.41
2023-05-14T13:30:13.254Z,96368.84
2023-05-14T13:32:42.104Z,96363.56
2023-05-14T13:35:09.225Z,96369.00
2023-05-14T13:37:36.068Z,96360.50
2023-05-14T13:40:04.347Z,96371.63
2023-05-14T13:42:31.004Z,96362.78
2023-05-14T13:44:59.171Z,96359.91
2023-05-14T13:47:26.465Z,96369.59
2023-05-14T13:49:53.460Z,96363.69
2023-05-14T13:52:19.928Z,96371.13
2023-05-14T13:54:46.465Z,96377.16
2023-05-14T13:57:12.911Z,96385.88
2023-05-14T13:59:39.440Z,96400.94
2023-05-14T14:02:06.340Z,96399.19
2023-05-14T14:04:32.900Z,96410.94
2023-05-14T14:06:59.411Z,96408.09
2023-05-14T14:09:26.171Z,96414.41
2023-05-14T14:11:52.839Z,96421.41
2023-05-14T14:14:19.409Z,96410.28
2023-05-14T14:16:45.944Z,96415.56
2023-05-14T14:19:12.302Z,96410.31
2023-05-14T14:21:42.617Z,96413.75
2023-05-14T14:24:09.071Z,96395.13
2023-05-14T14:26:35.589Z,96406.50
2023-05-14T14:29:01.991Z,96412.59
2023-05-14T14:31:29.102Z,96415.16
2023-05-14T14:33:55.496Z,96417.91
2023-05-14T14:36:22.053Z,96430.00
2023-05-14T14:38:48.536Z,96420.72
2023-05-14T14:41:14.947Z,96430.97
2023-05-14T14:43:42.075Z,96431.09
2023-05-14T14:46:09.209Z,96432.97
2023-05-14T14:48:39.011Z,96433.69
2023-05-14T14:51:06.911Z,96436.25
2023-05-14T14:53:34.408Z,96427.59
2023-05-14T14:56:02.003Z,96426.75
2023-05-14T14:58:28.619Z,96416.47
2023-05-14T15:00:56.747Z,96426.00
2023-05-14T15:03:24.727Z,96426.91
2023-05-14T15:05:53.274Z,96421.75
2023-05-14T15:08:20.848Z,96427.88
2023-05-14T15:10:47.382Z,96428.69
2023-05-14T15:13:13.914Z,96421.81
2023-05-14T15:15:40.560Z,96431.31
2023-05-14T15:18:07.052Z,96427.03
2023-05-14T15:20:33.664Z,96424.47
2023-05-14T15:23:00.275Z,96419.38
2023-05-14T15:25:27.311Z,96421.88
2023-05-14T15:27:53.895Z,96423.59
2023-05-14T15:30:20.608Z,96415.94
2023-05-14T15:32:47.108Z,96424.47
2023-05-14T15:35:13.960Z,96421.88
2023-05-14T15:37:42.609Z,96417.63
2023-05-14T15:40:10.336Z,96417.63
2023-05-14T15:42:44.462Z,96416.06
2023-05-14T15:45:12.678Z,96425.50
2023-05-14T15:47:39.850Z,96414.47
2023-05-14T15:50:07.136Z,96416.31
2023-05-14T15:52:33.951Z,96413.69
2023-05-14T15:55:00.583Z,96417.06
2023-05-14T15:57:27.516Z,96417.94
2023-05-14T15:59:54.081Z,96412.81
2023-05-14T16:02:20.565Z,96417.97
2023-05-14T16:04:48.693Z,96407.69
2023-05-14T16:07:15.736Z,96403.41
2023-05-14T16:09:42.362Z,96406.81
2023-05-14T16:12:09.283Z,96404.94
2023-05-14T16:14:36.281Z,96407.44
2023-05-14T16:17:02.721Z,96404.00
2023-05-14T16:19:29.057Z,96410.78
2023-05-14T16:21:55.609Z,96413.25
2023-05-14T16:24:22.040Z,96406.25
2023-05-14T16:26:48.589Z,96395.09
2023-05-14T16:29:15.174Z,96401.81
2023-05-14T16:31:41.659Z,96395.63
2023-05-14T16:34:08.094Z,96396.44
2023-05-14T16:36:34.553Z,96397.22
2023-05-14T16:41:30.740Z,96394.69
2023-05-14T16:43:57.228Z,96391.97
2023-05-14T16:46:23.768Z,96388.56
2023-05-14T16:48:50.615Z,96389.50
2023-05-14T16:51:17.064Z,96394.63
2023-05-14T16:53:43.506Z,96392.97
2023-05-14T16:56:11.032Z,96399.06
2023-05-14T16:58:38.416Z,96397.47
2023-05-14T17:01:06.345Z,96391.53
2023-05-14T17:03:33.864Z,96387.38
2023-05-14T17:06:00.543Z,96391.69
2023-05-14T17:08:32.249Z,96395.16
2023-05-14T17:10:59.021Z,96393.44
2023-05-14T17:13:25.560Z,96384.88
2023-05-14T17:15:52.050Z,96390.88
2023-05-14T17:18:18.520Z,96374.59
2023-05-14T17:20:44.872Z,96382.38
2023-05-14T17:23:11.232Z,96379.78
2023-05-14T17:25:37.572Z,96372.06
2023-05-14T17:28:04.215Z,96377.22
2023-05-14T17:30:30.650Z,96386.66
2023-05-14T17:32:57.069Z,96378.09
2023-05-14T17:35:23.675Z,96382.44
2023-05-14T17:37:50.312Z,96379.91
2023-05-14T17:40:16.887Z,96384.97
2023-05-14T17:42:45.412Z,96379.00
2023-05-14T17:45:13.175Z,96382.50
2023-05-14T17:47:39.783Z,96384.28
2023-05-14T17:50:07.128Z,96386.06
2023-05-14T17:52:33.924Z,96392.13
2023-05-14T17:55:00.359Z,96382.72
2023-05-14T17:57:26.998Z,96381.00
2023-05-14T17:59:53.444Z,96381.09
2023-05-14T18:02:19.890Z,96381.97
2023-05-14T18:04:46.636Z,96378.56
2023-05-14T18:07:13.255Z,96381.22
2023-05-14T18:09:39.630Z,96371.06
2023-05-14T18:12:06.651Z,96376.22
2023-05-14T18:14:33.533Z,96375.41
2023-05-14T18:17:00.080Z,96375.47
2023-05-14T18:19:26.572Z,96371.19
2023-05-14T18:21:55.337Z,96369.53
2023-05-14T18:24:22.258Z,96371.25
2023-05-14T18:26:48.730Z,96366.16
2023-05-14T18:29:15.265Z,96356.78
2023-05-14T18:31:41.666Z,96364.53
2023-05-14T18:34:08.258Z,96365.41
2023-05-14T18:36:34.923Z,96368.88
2023-05-14T18:39:01.394Z,96368.06
2023-05-14T18:41:27.772Z,96376.69
2023-05-14T18:43:54.213Z,96370.72
2023-05-14T18:46:20.928Z,96367.34
2023-05-14T18:48:47.388Z,96358.78
2023-05-14T18:51:13.892Z,96354.56
2023-05-14T18:53:40.424Z,96366.63
2023-05-14T18:56:07.461Z,96371.78
2023-05-14T18:58:35.084Z,96359.00
2023-05-14T19:01:01.633Z,96361.59
2023-05-14T19:03:28.354Z,96356.47
2023-05-14T19:05:54.851Z,96361.59
2023-05-14T19:08:21.339Z,96358.19
2023-05-14T19:10:47.731Z,96364.13
2023-05-14T19:13:15.863Z,96363.34
2023-05-14T19:15:43.100Z,96362.50
2023-05-14T19:18:09.637Z,96369.34
2023-05-14T19:20:36.176Z,96369.38
2023-05-14T19:23:02.574Z,96371.97
2023-05-14T19:25:29.320Z,96374.59
2023-05-14T19:27:56.635Z,96376.34
2023-05-14T19:30:23.379Z,96374.63
2023-05-14T19:32:49.998Z,96381.53
2023-05-14T19:35:16.508Z,96375.56
2023-05-14T19:37:43.030Z,96372.13
2023-05-14T19:40:09.670Z,96382.41
2023-05-14T19:42:38.978Z,96380.72
2023-05-14T19:45:05.987Z,96383.28
2023-05-14T19:47:32.624Z,96389.28
2023-05-14T19:49:59.137Z,96382.44
2023-05-14T19:52:26.793Z,96385.03
2023-05-14T19:54:53.218Z,96383.31
2023-05-14T19:57:19.779Z,96380.75
2023-05-14T19:59:46.361Z,96379.91
2023-05-14T20:02:18.093Z,96385.03
2023-05-14T20:04:45.979Z,96385.91
2023-05-14T20:07:15.312Z,96379.91
2023-05-14T20:09:42.096Z,96391.06
2023-05-14T20:12:09.150Z,96391.91
2023-05-14T20:14:35.979Z,96388.50
2023-05-14T20:17:02.488Z,96387.66
2023-05-14T20:19:29.018Z,96387.66
2023-05-14T20:21:56.178Z,96385.13
2023-05-14T20:24:22.800Z,96378.28
2023-05-14T20:26:49.307Z,96379.97
2023-05-14T20:29:15.671Z,96381.66
2023-05-14T20:31:42.101Z,96378.28
2023-05-14T20:34:08.492Z,96377.41
2023-05-14T20:36:35.780Z,96370.59
2023-05-14T20:39:02.333Z,96383.38
2023-05-14T20:41:28.732Z,96380.81
2023-05-14T20:43:55.093Z,96376.59
2023-05-14T20:46:21.683Z,96385.09
2023-05-14T20:48:48.615Z,96378.28
2023-05-14T20:51:15.031Z,96379.13
2023-05-14T20:53:41.697Z,96378.28
2023-05-14T20:56:08.149Z,96374.88
2023-05-14T20:58:35.188Z,96374.88
2023-05-14T21:01:01.715Z,96373.19
2023-05-14T21:03:28.259Z,96372.31
2023-05-14T21:05:56.661Z,96371.47
2023-05-14T21:08:23.194Z,96367.22
2023-05-14T21:10:49.648Z,96366.34
2023-05-14T21:13:16.147Z,96369.75
2023-05-14T21:15:42.784Z,96360.38
2023-05-14T21:18:09.197Z,96365.50
2023-05-14T21:20:35.741Z,96364.66
2023-05-14T21:23:02.132Z,96366.34
2023-05-14T21:25:28.683Z,96368.06
2023-05-14T21:27:55.313Z,96374.06
2023-05-14T21:30:21.822Z,96365.50
2023-05-14T21:32:48.336Z,96369.78
2023-05-14T21:35:14.877Z,96370.63
2023-05-14T21:37:41.564Z,96369.78
2023-05-14T21:40:14.865Z,96373.19
2023-05-14T21:42:41.317Z,96374.03
2023-05-14T21:45:08.267Z,96358.69
2023-05-14T21:47:34.979Z,96358.69
2023-05-14T21:50:01.564Z,96368.91
2023-05-14T21:52:27.966Z,96371.47
2023-05-14T21:54:54.427Z,96365.50
2023-05-14T21:57:20.966Z,96365.50
2023-05-14T21:59:48.445Z,96360.38
2023-05-14T22:02:15.128Z,96361.25
2023-05-14T22:04:41.909Z,96364.66
2023-05-14T22:07:08.366Z,96362.09
2023-05-14T22:09:34.784Z,96362.09
2023-05-14T22:12:01.163Z,96361.25
2023-05-14T22:14:27.666Z,96351.00
2023-05-14T22:16:54.276Z,96346.72
2023-05-14T22:19:21.099Z,96346.72
2023-05-14T22:21:47.602Z,96349.31
2023-05-14T22:24:14.047Z,96345.88
2023-05-14T22:26:40.641Z,96341.59
2023-05-14T22:29:07.116Z,96337.34
2023-05-14T22:31:33.523Z,96346.75
2023-05-14T22:34:00.013Z,96342.47
2023-05-14T22:36:26.500Z,96346.72
2023-05-14T22:38:52.898Z,96351.84
2023-05-14T22:41:19.982Z,96340.78
2023-05-14T22:43:48.572Z,96336.50
2023-05-14T22:46:15.885Z,96341.59
2023-05-14T22:48:42.341Z,96337.34
2023-05-14T22:51:08.802Z,96335.63
2023-05-14T22:53:35.232Z,96333.91
2023-05-14T22:56:02.114Z,96330.53
2023-05-14T22:58:28.630Z,96329.66
2023-05-14T23:00:55.006Z,96317.72
2023-05-14T23:03:22.518Z,96314.31
2023-05-14T23:05:49.180Z,96311.75
2023-05-14T23:08:15.676Z,96308.34
2023-05-14T23:10:42.039Z,96313.44
2023-05-14T23:13:08.461Z,96311.75
2023-05-14T23:15:35.019Z,96310.88
2023-05-14T23:18:01.635Z,96304.06
2023-05-14T23:20:28.116Z,96300.66
2023-05-14T23:22:54.522Z,96283.59
2023-05-14T23:25:20.956Z,96298.94
2023-05-14T23:27:48.050Z,96292.97
2023-05-14T23:30:14.510Z,96288.69
2023-05-14T23:32:44.050Z,96282.72
2023-05-14T23:35:10.559Z,96282.75
2023-05-14T23:37:41.760Z,96284.47
2023-05-14T23:40:09.442Z,96281.88
2023-05-14T23:42:35.887Z,96272.53
2023-05-14T23:45:02.289Z,96269.13
2023-05-14T23:47:28.771Z,96262.28
2023-05-14T23:49:55.323Z,96263.97
2023-05-14T23:52:21.754Z,96256.31
2023-05-14T23:54:48.098Z,96258.03
2023-05-14T23:57:15.235Z,96251.19
2023-05-14T23:59:41.701Z,96250.34
